X  Schlie├čen METAR Luftfahrt Wetterdaten     EDVE Braunschweig-Wolfsburg Airport
Temperatur
39°F Temperatur
36°F Taupunkt
87% Feuchtigkeit



Wind
13 MPS
21 KM/S
6 M/S
11 KTS



270°
W
Aktuelle Wetterlage

Klar Klar
Luftdruck 1015.92 (hPa) - 30 (inHg)
Sichtweite 6.2 (Meile) - 10 (Km)
Flughafen
Flughafen Code EDVE

Position : Braunschweig-Wolfsburg Airport
Entfernung: 35 (mi)

Metar:
EDVE 271420Z 27011KT CAVOK 04/02 Q1016

Zeit: 27-03-2023 14:20 CEST